sensor_id;sensor_type;location;lat;lon;timestamp;temperature;humidity
34279;DHT22;20538;51.528;9.942;2023-07-13T00:02:10;18.20;92.80
34279;DHT22;20538;51.528;9.942;2023-07-13T00:04:36;18.20;93.20
34279;DHT22;20538;51.528;9.942;2023-07-13T00:07:01;18.20;93.10
34279;DHT22;20538;51.528;9.942;2023-07-13T00:09:28;18.10;93.20
34279;DHT22;20538;51.528;9.942;2023-07-13T00:11:55;18.20;93.30
34279;DHT22;20538;51.528;9.942;2023-07-13T00:14:22;18.20;93.20
34279;DHT22;20538;51.528;9.942;2023-07-13T00:16:48;18.20;93.20
34279;DHT22;20538;51.528;9.942;2023-07-13T00:19:14;18.10;93.00
34279;DHT22;20538;51.528;9.942;2023-07-13T00:21:40;18.20;93.50
34279;DHT22;20538;51.528;9.942;2023-07-13T00:24:07;18.20;92.90
34279;DHT22;20538;51.528;9.942;2023-07-13T00:26:34;18.20;93.30
34279;DHT22;20538;51.528;9.942;2023-07-13T00:29:00;18.10;93.20
34279;DHT22;20538;51.528;9.942;2023-07-13T00:31:25;18.10;93.30
34279;DHT22;20538;51.528;9.942;2023-07-13T00:33:51;18.10;93.30
34279;DHT22;20538;51.528;9.942;2023-07-13T00:36:17;18.00;93.40
34279;DHT22;20538;51.528;9.942;2023-07-13T00:38:43;18.00;93.30
34279;DHT22;20538;51.528;9.942;2023-07-13T00:41:10;18.00;93.50
34279;DHT22;20538;51.528;9.942;2023-07-13T00:43:36;17.90;93.70
34279;DHT22;20538;51.528;9.942;2023-07-13T00:48:31;17.80;93.70
34279;DHT22;20538;51.528;9.942;2023-07-13T00:50:58;17.80;94.10
34279;DHT22;20538;51.528;9.942;2023-07-13T00:53:26;17.90;94.10
34279;DHT22;20538;51.528;9.942;2023-07-13T00:55:54;18.00;94.10
34279;DHT22;20538;51.528;9.942;2023-07-13T00:58:20;18.00;93.90
34279;DHT22;20538;51.528;9.942;2023-07-13T01:00:46;18.00;94.20
34279;DHT22;20538;51.528;9.942;2023-07-13T01:03:14;18.00;94.00
34279;DHT22;20538;51.528;9.942;2023-07-13T01:05:40;18.00;94.20
34279;DHT22;20538;51.528;9.942;2023-07-13T01:08:05;17.90;94.50
34279;DHT22;20538;51.528;9.942;2023-07-13T01:10:31;18.00;94.70
34279;DHT22;20538;51.528;9.942;2023-07-13T01:13:08;17.90;94.40
34279;DHT22;20538;51.528;9.942;2023-07-13T01:15:40;18.00;94.80
34279;DHT22;20538;51.528;9.942;2023-07-13T01:18:16;18.00;94.40
34279;DHT22;20538;51.528;9.942;2023-07-13T01:20:51;18.00;94.50
34279;DHT22;20538;51.528;9.942;2023-07-13T01:23:17;18.00;94.30
34279;DHT22;20538;51.528;9.942;2023-07-13T01:25:42;17.90;94.30
34279;DHT22;20538;51.528;9.942;2023-07-13T01:28:08;17.90;94.20
34279;DHT22;20538;51.528;9.942;2023-07-13T01:30:38;17.90;94.10
34279;DHT22;20538;51.528;9.942;2023-07-13T01:33:06;17.80;94.20
34279;DHT22;20538;51.528;9.942;2023-07-13T01:35:33;17.80;94.40
34279;DHT22;20538;51.528;9.942;2023-07-13T01:37:58;17.80;94.70
34279;DHT22;20538;51.528;9.942;2023-07-13T01:40:25;17.80;95.00
34279;DHT22;20538;51.528;9.942;2023-07-13T01:42:51;17.70;95.10
34279;DHT22;20538;51.528;9.942;2023-07-13T01:45:17;17.70;95.40
34279;DHT22;20538;51.528;9.942;2023-07-13T01:47:42;17.70;95.30
34279;DHT22;20538;51.528;9.942;2023-07-13T01:50:08;17.60;95.40
34279;DHT22;20538;51.528;9.942;2023-07-13T01:52:34;17.60;95.40
34279;DHT22;20538;51.528;9.942;2023-07-13T01:55:00;17.70;95.50
34279;DHT22;20538;51.528;9.942;2023-07-13T01:57:25;17.70;95.10
34279;DHT22;20538;51.528;9.942;2023-07-13T01:59:51;17.70;94.80
34279;DHT22;20538;51.528;9.942;2023-07-13T02:02:16;17.70;95.20
34279;DHT22;20538;51.528;9.942;2023-07-13T02:04:42;17.70;95.00
34279;DHT22;20538;51.528;9.942;2023-07-13T02:07:08;17.70;95.10
34279;DHT22;20538;51.528;9.942;2023-07-13T02:09:34;17.70;95.00
34279;DHT22;20538;51.528;9.942;2023-07-13T02:12:00;17.70;95.00
34279;DHT22;20538;51.528;9.942;2023-07-13T02:14:26;17.70;94.90
34279;DHT22;20538;51.528;9.942;2023-07-13T02:16:51;17.60;94.80
34279;DHT22;20538;51.528;9.942;2023-07-13T02:19:17;17.60;94.80
34279;DHT22;20538;51.528;9.942;2023-07-13T02:21:43;17.70;95.30
34279;DHT22;20538;51.528;9.942;2023-07-13T02:24:08;17.60;94.80
34279;DHT22;20538;51.528;9.942;2023-07-13T02:26:34;17.50;94.80
34279;DHT22;20538;51.528;9.942;2023-07-13T02:29:00;17.40;95.40
34279;DHT22;20538;51.528;9.942;2023-07-13T02:31:26;17.20;95.10
34279;DHT22;20538;51.528;9.942;2023-07-13T02:33:51;17.00;95.30
34279;DHT22;20538;51.528;9.942;2023-07-13T02:36:17;16.90;95.30
34279;DHT22;20538;51.528;9.942;2023-07-13T02:38:44;16.70;95.40
34279;DHT22;20538;51.528;9.942;2023-07-13T02:41:10;16.60;96.10
34279;DHT22;20538;51.528;9.942;2023-07-13T02:43:37;16.50;96.70
34279;DHT22;20538;51.528;9.942;2023-07-13T02:46:02;16.60;96.80
34279;DHT22;20538;51.528;9.942;2023-07-13T02:48:35;16.50;96.90
34279;DHT22;20538;51.528;9.942;2023-07-13T02:51:01;16.50;97.50
34279;DHT22;20538;51.528;9.942;2023-07-13T02:53:27;16.40;97.40
34279;DHT22;20538;51.528;9.942;2023-07-13T02:55:53;16.40;97.80
34279;DHT22;20538;51.528;9.942;2023-07-13T02:58:18;16.40;98.10
34279;DHT22;20538;51.528;9.942;2023-07-13T03:00:45;16.40;98.50
34279;DHT22;20538;51.528;9.942;2023-07-13T03:03:14;16.40;98.40
34279;DHT22;20538;51.528;9.942;2023-07-13T03:05:42;16.30;98.80
34279;DHT22;20538;51.528;9.942;2023-07-13T03:08:09;16.30;99.20
34279;DHT22;20538;51.528;9.942;2023-07-13T03:10:35;16.30;99.60
34279;DHT22;20538;51.528;9.942;2023-07-13T03:13:01;16.20;99.40
34279;DHT22;20538;51.528;9.942;2023-07-13T03:15:27;16.20;99.70
34279;DHT22;20538;51.528;9.942;2023-07-13T03:17:52;16.20;99.90
34279;DHT22;20538;51.528;9.942;2023-07-13T03:20:18;16.20;99.90
34279;DHT22;20538;51.528;9.942;2023-07-13T03:22:44;16.20;99.90
34279;DHT22;20538;51.528;9.942;2023-07-13T03:25:10;16.10;99.90
34279;DHT22;20538;51.528;9.942;2023-07-13T03:27:36;16.10;99.90
34279;DHT22;20538;51.528;9.942;2023-07-13T03:30:03;16.00;99.90
34279;DHT22;20538;51.528;9.942;2023-07-13T03:32:29;16.00;99.90
34279;DHT22;20538;51.528;9.942;2023-07-13T03:34:55;16.00;99.90
34279;DHT22;20538;51.528;9.942;2023-07-13T03:37:20;16.00;99.90
34279;DHT22;20538;51.528;9.942;2023-07-13T03:39:46;16.00;99.90
34279;DHT22;20538;51.528;9.942;2023-07-13T03:42:12;16.00;99.90
34279;DHT22;20538;51.528;9.942;2023-07-13T03:44:40;16.10;99.90
34279;DHT22;20538;51.528;9.942;2023-07-13T03:47:06;16.10;99.90
34279;DHT22;20538;51.528;9.942;2023-07-13T03:49:34;16.10;99.90
34279;DHT22;20538;51.528;9.942;2023-07-13T03:51:59;16.10;99.90
34279;DHT22;20538;51.528;9.942;2023-07-13T03:54:25;16.10;99.90
34279;DHT22;20538;51.528;9.942;2023-07-13T03:56:51;16.20;99.90
34279;DHT22;20538;51.528;9.942;2023-07-13T03:59:18;16.20;99.90
34279;DHT22;20538;51.528;9.942;2023-07-13T04:01:49;16.10;99.90
34279;DHT22;20538;51.528;9.942;2023-07-13T04:04:18;16.20;99.90
34279;DHT22;20538;51.528;9.942;2023-07-13T04:06:47;16.20;99.90
34279;DHT22;20538;51.528;9.942;2023-07-13T04:09:14;16.20;99.90
34279;DHT22;20538;51.528;9.942;2023-07-13T04:11:41;16.20;99.90
34279;DHT22;20538;51.528;9.942;2023-07-13T04:14:07;16.20;99.90
34279;DHT22;20538;51.528;9.942;2023-07-13T04:16:34;16.20;99.90
34279;DHT22;20538;51.528;9.942;2023-07-13T04:19:02;16.30;99.90
34279;DHT22;20538;51.528;9.942;2023-07-13T04:21:31;16.20;99.90
34279;DHT22;20538;51.528;9.942;2023-07-13T04:23:58;16.20;99.90
34279;DHT22;20538;51.528;9.942;2023-07-13T04:26:24;16.30;99.90
34279;DHT22;20538;51.528;9.942;2023-07-13T04:28:57;16.30;99.90
34279;DHT22;20538;51.528;9.942;2023-07-13T04:31:30;16.30;99.90
34279;DHT22;20538;51.528;9.942;2023-07-13T04:33:57;16.30;99.90
34279;DHT22;20538;51.528;9.942;2023-07-13T04:36:25;16.40;99.90
34279;DHT22;20538;51.528;9.942;2023-07-13T04:38:53;16.50;99.90
34279;DHT22;20538;51.528;9.942;2023-07-13T04:41:23;16.70;99.90
34279;DHT22;20538;51.528;9.942;2023-07-13T04:43:52;17.40;99.90
34279;DHT22;20538;51.528;9.942;2023-07-13T04:46:43;18.50;97.90
34279;DHT22;20538;51.528;9.942;2023-07-13T04:49:14;19.60;96.20
34279;DHT22;20538;51.528;9.942;2023-07-13T04:51:39;20.30;94.40
34279;DHT22;20538;51.528;9.942;2023-07-13T04:54:05;20.50;93.60
34279;DHT22;20538;51.528;9.942;2023-07-13T04:56:37;21.10;93.30
34279;DHT22;20538;51.528;9.942;2023-07-13T04:59:25;21.60;92.20
34279;DHT22;20538;51.528;9.942;2023-07-13T05:01:57;21.80;90.70
34279;DHT22;20538;51.528;9.942;2023-07-13T05:04:29;22.40;90.30
34279;DHT22;20538;51.528;9.942;2023-07-13T05:07:27;22.80;89.20
34279;DHT22;20538;51.528;9.942;2023-07-13T05:09:54;22.90;89.50
34279;DHT22;20538;51.528;9.942;2023-07-13T05:12:21;22.90;87.50
34279;DHT22;20538;51.528;9.942;2023-07-13T05:14:47;23.30;86.80
34279;DHT22;20538;51.528;9.942;2023-07-13T05:17:16;23.80;85.60
34279;DHT22;20538;51.528;9.942;2023-07-13T05:19:43;23.80;85.10
34279;DHT22;20538;51.528;9.942;2023-07-13T05:22:09;24.10;84.70
34279;DHT22;20538;51.528;9.942;2023-07-13T05:24:35;24.30;83.70
34279;DHT22;20538;51.528;9.942;2023-07-13T05:27:06;24.50;83.50
34279;DHT22;20538;51.528;9.942;2023-07-13T05:29:54;24.60;81.90
34279;DHT22;20538;51.528;9.942;2023-07-13T05:32:22;24.50;82.60
34279;DHT22;20538;51.528;9.942;2023-07-13T05:34:48;25.00;81.90
34279;DHT22;20538;51.528;9.942;2023-07-13T05:37:13;24.50;80.90
34279;DHT22;20538;51.528;9.942;2023-07-13T05:39:39;24.90;80.60
34279;DHT22;20538;51.528;9.942;2023-07-13T05:42:06;25.30;79.90
34279;DHT22;20538;51.528;9.942;2023-07-13T05:44:31;25.50;78.30
34279;DHT22;20538;51.528;9.942;2023-07-13T05:46:57;25.30;77.70
34279;DHT22;20538;51.528;9.942;2023-07-13T05:49:23;24.80;77.20
34279;DHT22;20538;51.528;9.942;2023-07-13T05:51:49;25.10;78.10
34279;DHT22;20538;51.528;9.942;2023-07-13T05:54:14;24.80;79.40
34279;DHT22;20538;51.528;9.942;2023-07-13T05:56:40;24.60;78.70
34279;DHT22;20538;51.528;9.942;2023-07-13T05:59:06;24.70;78.50
34279;DHT22;20538;51.528;9.942;2023-07-13T06:01:31;24.80;79.00
34279;DHT22;20538;51.528;9.942;2023-07-13T06:03:57;24.80;78.00
34279;DHT22;20538;51.528;9.942;2023-07-13T06:06:23;24.60;77.40
34279;DHT22;20538;51.528;9.942;2023-07-13T06:08:49;24.00;79.40
34279;DHT22;20538;51.528;9.942;2023-07-13T06:11:17;23.80;75.20
34279;DHT22;20538;51.528;9.942;2023-07-13T06:13:44;22.00;77.70
34279;DHT22;20538;51.528;9.942;2023-07-13T06:16:10;21.60;79.20
34279;DHT22;20538;51.528;9.942;2023-07-13T06:18:37;21.80;79.80
34279;DHT22;20538;51.528;9.942;2023-07-13T06:21:08;21.80;80.50
34279;DHT22;20538;51.528;9.942;2023-07-13T06:23:34;22.70;78.60
34279;DHT22;20538;51.528;9.942;2023-07-13T06:26:00;23.10;78.90
34279;DHT22;20538;51.528;9.942;2023-07-13T06:28:26;23.50;77.40
34279;DHT22;20538;51.528;9.942;2023-07-13T06:30:51;22.50;77.00
34279;DHT22;20538;51.528;9.942;2023-07-13T06:33:17;21.20;78.90
34279;DHT22;20538;51.528;9.942;2023-07-13T06:35:43;21.30;79.40
34279;DHT22;20538;51.528;9.942;2023-07-13T06:38:09;21.70;81.40
34279;DHT22;20538;51.528;9.942;2023-07-13T06:40:35;21.40;79.60
34279;DHT22;20538;51.528;9.942;2023-07-13T06:43:00;22.00;80.50
34279;DHT22;20538;51.528;9.942;2023-07-13T06:45:26;21.40;79.60
34279;DHT22;20538;51.528;9.942;2023-07-13T06:47:52;21.20;80.40
34279;DHT22;20538;51.528;9.942;2023-07-13T06:50:17;21.60;82.00
34279;DHT22;20538;51.528;9.942;2023-07-13T06:52:43;21.70;80.90
34279;DHT22;20538;51.528;9.942;2023-07-13T06:55:08;21.80;80.90
34279;DHT22;20538;51.528;9.942;2023-07-13T06:57:34;21.40;81.80
34279;DHT22;20538;51.528;9.942;2023-07-13T07:00:00;21.60;81.50
34279;DHT22;20538;51.528;9.942;2023-07-13T07:02:25;21.90;81.70
34279;DHT22;20538;51.528;9.942;2023-07-13T07:04:51;20.50;80.30
34279;DHT22;20538;51.528;9.942;2023-07-13T07:07:17;20.10;80.40
34279;DHT22;20538;51.528;9.942;2023-07-13T07:09:42;20.30;81.00
34279;DHT22;20538;51.528;9.942;2023-07-13T07:12:08;20.40;81.90
34279;DHT22;20538;51.528;9.942;2023-07-13T07:14:34;20.50;82.40
34279;DHT22;20538;51.528;9.942;2023-07-13T07:17:00;20.70;81.10
34279;DHT22;20538;51.528;9.942;2023-07-13T07:19:26;20.10;81.60
34279;DHT22;20538;51.528;9.942;2023-07-13T07:21:51;20.50;83.20
34279;DHT22;20538;51.528;9.942;2023-07-13T07:24:17;20.20;82.00
34279;DHT22;20538;51.528;9.942;2023-07-13T07:26:42;20.30;82.20
34279;DHT22;20538;51.528;9.942;2023-07-13T07:29:08;20.10;82.80
34279;DHT22;20538;51.528;9.942;2023-07-13T07:31:34;20.20;82.30
34279;DHT22;20538;51.528;9.942;2023-07-13T07:33:59;20.50;82.00
34279;DHT22;20538;51.528;9.942;2023-07-13T07:36:25;20.10;82.30
34279;DHT22;20538;51.528;9.942;2023-07-13T07:38:51;20.70;82.40
34279;DHT22;20538;51.528;9.942;2023-07-13T07:41:16;21.40;81.60
34279;DHT22;20538;51.528;9.942;2023-07-13T07:43:42;21.10;79.00
34279;DHT22;20538;51.528;9.942;2023-07-13T07:48:33;20.50;78.20
34279;DHT22;20538;51.528;9.942;2023-07-13T07:50:59;20.50;79.10
34279;DHT22;20538;51.528;9.942;2023-07-13T07:53:25;20.50;79.30
34279;DHT22;20538;51.528;9.942;2023-07-13T07:55:50;20.90;80.80
34279;DHT22;20538;51.528;9.942;2023-07-13T07:58:16;21.30;82.30
34279;DHT22;20538;51.528;9.942;2023-07-13T08:00:42;21.90;82.50
34279;DHT22;20538;51.528;9.942;2023-07-13T08:03:08;22.10;79.80
34279;DHT22;20538;51.528;9.942;2023-07-13T08:05:35;22.20;78.60
34279;DHT22;20538;51.528;9.942;2023-07-13T08:08:02;22.10;80.30
34279;DHT22;20538;51.528;9.942;2023-07-13T08:10:27;22.30;81.90
34279;DHT22;20538;51.528;9.942;2023-07-13T08:12:53;22.50;79.70
34279;DHT22;20538;51.528;9.942;2023-07-13T08:15:19;22.70;80.20
34279;DHT22;20538;51.528;9.942;2023-07-13T08:17:47;23.10;78.30
34279;DHT22;20538;51.528;9.942;2023-07-13T08:20:13;23.10;79.20
34279;DHT22;20538;51.528;9.942;2023-07-13T08:22:39;23.20;77.10
34279;DHT22;20538;51.528;9.942;2023-07-13T08:25:05;23.20;78.20
34279;DHT22;20538;51.528;9.942;2023-07-13T08:27:30;23.50;79.10
34279;DHT22;20538;51.528;9.942;2023-07-13T08:29:56;23.60;76.80
34279;DHT22;20538;51.528;9.942;2023-07-13T08:32:23;23.10;77.60
34279;DHT22;20538;51.528;9.942;2023-07-13T08:34:49;23.20;77.00
34279;DHT22;20538;51.528;9.942;2023-07-13T08:37:16;22.40;75.90
34279;DHT22;20538;51.528;9.942;2023-07-13T08:39:42;22.70;75.20
34279;DHT22;20538;51.528;9.942;2023-07-13T08:47:52;22.80;78.00
34279;DHT22;20538;51.528;9.942;2023-07-13T08:50:25;23.00;77.40
34279;DHT22;20538;51.528;9.942;2023-07-13T08:52:52;23.00;77.20
34279;DHT22;20538;51.528;9.942;2023-07-13T08:55:30;22.80;75.90
34279;DHT22;20538;51.528;9.942;2023-07-13T08:58:06;22.80;75.30
34279;DHT22;20538;51.528;9.942;2023-07-13T09:03:16;22.50;74.40
34279;DHT22;20538;51.528;9.942;2023-07-13T09:05:58;22.90;75.50
34279;DHT22;20538;51.528;9.942;2023-07-13T09:11:28;23.00;77.20
34279;DHT22;20538;51.528;9.942;2023-07-13T09:16:54;22.90;76.90
34279;DHT22;20538;51.528;9.942;2023-07-13T09:19:28;23.20;76.90
34279;DHT22;20538;51.528;9.942;2023-07-13T09:21:56;22.50;74.90
34279;DHT22;20538;51.528;9.942;2023-07-13T09:24:30;22.10;78.10
34279;DHT22;20538;51.528;9.942;2023-07-13T09:27:00;22.50;79.40
34279;DHT22;20538;51.528;9.942;2023-07-13T09:29:34;22.40;76.50
34279;DHT22;20538;51.528;9.942;2023-07-13T09:32:03;22.30;75.50
34279;DHT22;20538;51.528;9.942;2023-07-13T09:34:30;22.60;76.60
34279;DHT22;20538;51.528;9.942;2023-07-13T09:36:57;22.30;76.60
34279;DHT22;20538;51.528;9.942;2023-07-13T09:44:38;23.20;74.10
34279;DHT22;20538;51.528;9.942;2023-07-13T09:47:16;22.80;73.50
34279;DHT22;20538;51.528;9.942;2023-07-13T09:49:42;22.90;74.10
34279;DHT22;20538;51.528;9.942;2023-07-13T09:52:12;23.30;74.90
34279;DHT22;20538;51.528;9.942;2023-07-13T09:54:39;23.50;74.80
34279;DHT22;20538;51.528;9.942;2023-07-13T09:57:14;23.50;74.60
34279;DHT22;20538;51.528;9.942;2023-07-13T09:59:43;23.20;73.30
34279;DHT22;20538;51.528;9.942;2023-07-13T10:04:46;23.40;72.30
34279;DHT22;20538;51.528;9.942;2023-07-13T10:07:22;22.90;75.20
34279;DHT22;20538;51.528;9.942;2023-07-13T10:09:52;23.10;74.90
34279;DHT22;20538;51.528;9.942;2023-07-13T10:12:19;23.20;74.10
34279;DHT22;20538;51.528;9.942;2023-07-13T10:14:45;23.60;76.60
34279;DHT22;20538;51.528;9.942;2023-07-13T10:17:13;23.90;75.10
34279;DHT22;20538;51.528;9.942;2023-07-13T10:19:41;23.70;71.30
34279;DHT22;20538;51.528;9.942;2023-07-13T10:22:27;23.30;75.10
34279;DHT22;20538;51.528;9.942;2023-07-13T10:24:55;22.70;72.80
34279;DHT22;20538;51.528;9.942;2023-07-13T10:27:33;22.60;73.20
34279;DHT22;20538;51.528;9.942;2023-07-13T10:30:14;22.40;75.90
34279;DHT22;20538;51.528;9.942;2023-07-13T10:32:40;22.10;74.20
34279;DHT22;20538;51.528;9.942;2023-07-13T10:35:10;22.20;76.40
34279;DHT22;20538;51.528;9.942;2023-07-13T10:37:52;22.70;73.00
34279;DHT22;20538;51.528;9.942;2023-07-13T10:40:32;23.20;74.00
34279;DHT22;20538;51.528;9.942;2023-07-13T10:43:00;22.90;71.00
34279;DHT22;20538;51.528;9.942;2023-07-13T10:45:29;23.10;74.10
34279;DHT22;20538;51.528;9.942;2023-07-13T10:47:56;23.70;73.30
34279;DHT22;20538;51.528;9.942;2023-07-13T10:50:24;23.80;70.90
34279;DHT22;20538;51.528;9.942;2023-07-13T10:53:20;23.90;71.20
34279;DHT22;20538;51.528;9.942;2023-07-13T11:04:08;23.50;70.50
34279;DHT22;20538;51.528;9.942;2023-07-13T11:09:32;23.60;71.70
34279;DHT22;20538;51.528;9.942;2023-07-13T11:12:00;23.20;72.70
34279;DHT22;20538;51.528;9.942;2023-07-13T11:14:36;22.90;73.00
34279;DHT22;20538;51.528;9.942;2023-07-13T11:17:37;23.10;74.50
34279;DHT22;20538;51.528;9.942;2023-07-13T11:23:07;23.50;71.30
34279;DHT22;20538;51.528;9.942;2023-07-13T11:25:35;23.60;74.70
34279;DHT22;20538;51.528;9.942;2023-07-13T11:30:47;23.70;74.00
34279;DHT22;20538;51.528;9.942;2023-07-13T11:33:14;24.10;70.50
34279;DHT22;20538;51.528;9.942;2023-07-13T11:36:04;23.80;71.00
34279;DHT22;20538;51.528;9.942;2023-07-13T11:38:45;23.40;70.80
34279;DHT22;20538;51.528;9.942;2023-07-13T11:41:22;22.90;70.50
34279;DHT22;20538;51.528;9.942;2023-07-13T11:43:50;23.30;70.70
34279;DHT22;20538;51.528;9.942;2023-07-13T11:46:25;23.90;70.40
34279;DHT22;20538;51.528;9.942;2023-07-13T11:48:51;24.30;70.20
34279;DHT22;20538;51.528;9.942;2023-07-13T11:51:28;24.90;71.00
34279;DHT22;20538;51.528;9.942;2023-07-13T11:53:55;25.30;68.50
34279;DHT22;20538;51.528;9.942;2023-07-13T11:56:23;24.50;69.80
34279;DHT22;20538;51.528;9.942;2023-07-13T11:58:54;23.90;70.70
34279;DHT22;20538;51.528;9.942;2023-07-13T12:01:23;23.90;70.20
34279;DHT22;20538;51.528;9.942;2023-07-13T12:03:50;23.80;68.80
34279;DHT22;20538;51.528;9.942;2023-07-13T12:06:28;24.20;70.10
34279;DHT22;20538;51.528;9.942;2023-07-13T12:09:03;24.30;69.70
34279;DHT22;20538;51.528;9.942;2023-07-13T12:11:29;24.90;69.10
34279;DHT22;20538;51.528;9.942;2023-07-13T12:13:55;24.90;69.60
34279;DHT22;20538;51.528;9.942;2023-07-13T12:16:31;24.60;68.10
34279;DHT22;20538;51.528;9.942;2023-07-13T12:18:59;24.30;67.60
34279;DHT22;20538;51.528;9.942;2023-07-13T12:21:38;24.10;68.00
34279;DHT22;20538;51.528;9.942;2023-07-13T12:24:04;23.90;69.40
34279;DHT22;20538;51.528;9.942;2023-07-13T12:26:38;24.30;68.90
34279;DHT22;20538;51.528;9.942;2023-07-13T12:29:06;23.20;69.00
34279;DHT22;20538;51.528;9.942;2023-07-13T12:31:39;23.90;70.90
34279;DHT22;20538;51.528;9.942;2023-07-13T12:37:00;24.80;68.90
34279;DHT22;20538;51.528;9.942;2023-07-13T12:39:37;25.10;68.60
34279;DHT22;20538;51.528;9.942;2023-07-13T12:42:28;25.60;70.20
34279;DHT22;20538;51.528;9.942;2023-07-13T12:44:57;25.40;68.70
34279;DHT22;20538;51.528;9.942;2023-07-13T12:47:24;24.60;67.10
34279;DHT22;20538;51.528;9.942;2023-07-13T12:49:57;24.30;68.20
34279;DHT22;20538;51.528;9.942;2023-07-13T12:54:57;24.90;70.30
34279;DHT22;20538;51.528;9.942;2023-07-13T12:57:24;24.30;66.90
34279;DHT22;20538;51.528;9.942;2023-07-13T12:59:54;24.50;66.60
34279;DHT22;20538;51.528;9.942;2023-07-13T13:02:26;24.40;69.30
34279;DHT22;20538;51.528;9.942;2023-07-13T13:04:55;24.30;68.00
34279;DHT22;20538;51.528;9.942;2023-07-13T13:07:21;24.10;68.90
34279;DHT22;20538;51.528;9.942;2023-07-13T13:09:47;24.30;67.00
34279;DHT22;20538;51.528;9.942;2023-07-13T13:12:13;23.90;67.30
34279;DHT22;20538;51.528;9.942;2023-07-13T13:14:38;24.20;68.10
34279;DHT22;20538;51.528;9.942;2023-07-13T13:17:21;24.80;70.30
34279;DHT22;20538;51.528;9.942;2023-07-13T13:19:49;24.70;70.30
34279;DHT22;20538;51.528;9.942;2023-07-13T13:22:15;24.50;70.80
34279;DHT22;20538;51.528;9.942;2023-07-13T13:24:41;24.60;68.80
34279;DHT22;20538;51.528;9.942;2023-07-13T13:27:18;24.40;69.90
34279;DHT22;20538;51.528;9.942;2023-07-13T13:29:45;24.40;67.00
34279;DHT22;20538;51.528;9.942;2023-07-13T13:32:14;24.30;67.10
34279;DHT22;20538;51.528;9.942;2023-07-13T13:34:41;24.60;66.90
34279;DHT22;20538;51.528;9.942;2023-07-13T13:37:23;24.80;65.10
34279;DHT22;20538;51.528;9.942;2023-07-13T13:39:50;25.00;66.00
34279;DHT22;20538;51.528;9.942;2023-07-13T13:42:17;24.50;65.70
34279;DHT22;20538;51.528;9.942;2023-07-13T13:44:43;24.50;66.50
34279;DHT22;20538;51.528;9.942;2023-07-13T13:47:26;24.10;66.70
34279;DHT22;20538;51.528;9.942;2023-07-13T13:49:53;24.40;67.30
34279;DHT22;20538;51.528;9.942;2023-07-13T13:52:18;24.70;66.70
34279;DHT22;20538;51.528;9.942;2023-07-13T13:54:44;24.20;67.30
34279;DHT22;20538;51.528;9.942;2023-07-13T13:57:10;24.20;68.10
34279;DHT22;20538;51.528;9.942;2023-07-13T13:59:38;24.50;67.60
34279;DHT22;20538;51.528;9.942;2023-07-13T14:02:25;24.70;68.80
34279;DHT22;20538;51.528;9.942;2023-07-13T14:05:02;24.60;68.30
34279;DHT22;20538;51.528;9.942;2023-07-13T14:07:28;24.30;67.70
34279;DHT22;20538;51.528;9.942;2023-07-13T14:09:58;24.00;67.10
34279;DHT22;20538;51.528;9.942;2023-07-13T14:12:27;24.40;69.40
34279;DHT22;20538;51.528;9.942;2023-07-13T14:14:54;24.30;68.30
34279;DHT22;20538;51.528;9.942;2023-07-13T14:17:22;24.40;68.20
34279;DHT22;20538;51.528;9.942;2023-07-13T14:19:50;24.40;67.60
34279;DHT22;20538;51.528;9.942;2023-07-13T14:22:17;24.40;68.40
34279;DHT22;20538;51.528;9.942;2023-07-13T14:24:43;24.70;68.20
34279;DHT22;20538;51.528;9.942;2023-07-13T14:27:12;24.80;66.60
34279;DHT22;20538;51.528;9.942;2023-07-13T14:29:38;24.50;66.40
34279;DHT22;20538;51.528;9.942;2023-07-13T14:32:07;24.20;66.90
34279;DHT22;20538;51.528;9.942;2023-07-13T14:34:34;24.40;66.50
34279;DHT22;20538;51.528;9.942;2023-07-13T14:37:03;24.40;66.40
34279;DHT22;20538;51.528;9.942;2023-07-13T14:39:30;24.10;66.20
34279;DHT22;20538;51.528;9.942;2023-07-13T14:41:57;25.10;67.30
34279;DHT22;20538;51.528;9.942;2023-07-13T14:44:29;24.80;66.00
34279;DHT22;20538;51.528;9.942;2023-07-13T14:46:58;24.50;66.10
34279;DHT22;20538;51.528;9.942;2023-07-13T14:49:34;24.20;66.90
34279;DHT22;20538;51.528;9.942;2023-07-13T14:52:17;24.30;67.30
34279;DHT22;20538;51.528;9.942;2023-07-13T14:54:51;24.40;67.80
34279;DHT22;20538;51.528;9.942;2023-07-13T14:57:58;24.20;68.30
34279;DHT22;20538;51.528;9.942;2023-07-13T15:00:25;23.60;67.00
34279;DHT22;20538;51.528;9.942;2023-07-13T15:02:54;23.80;68.30
34279;DHT22;20538;51.528;9.942;2023-07-13T15:05:23;23.80;68.00
34279;DHT22;20538;51.528;9.942;2023-07-13T15:07:51;24.10;69.30
34279;DHT22;20538;51.528;9.942;2023-07-13T15:10:49;24.10;67.70
34279;DHT22;20538;51.528;9.942;2023-07-13T15:13:39;24.20;68.60
34279;DHT22;20538;51.528;9.942;2023-07-13T15:16:16;24.10;67.60
34279;DHT22;20538;51.528;9.942;2023-07-13T15:18:45;24.20;66.50
34279;DHT22;20538;51.528;9.942;2023-07-13T15:21:21;24.00;66.00
34279;DHT22;20538;51.528;9.942;2023-07-13T15:23:48;24.00;68.20
34279;DHT22;20538;51.528;9.942;2023-07-13T15:26:15;24.00;66.30
34279;DHT22;20538;51.528;9.942;2023-07-13T15:28:42;24.00;66.80
34279;DHT22;20538;51.528;9.942;2023-07-13T15:31:26;24.10;67.60
34279;DHT22;20538;51.528;9.942;2023-07-13T15:33:56;24.70;68.40
34279;DHT22;20538;51.528;9.942;2023-07-13T15:36:23;25.00;67.90
34279;DHT22;20538;51.528;9.942;2023-07-13T15:38:53;25.00;67.60
34279;DHT22;20538;51.528;9.942;2023-07-13T15:41:26;24.90;67.00
34279;DHT22;20538;51.528;9.942;2023-07-13T15:43:56;24.60;65.70
34279;DHT22;20538;51.528;9.942;2023-07-13T15:46:28;24.20;67.90
34279;DHT22;20538;51.528;9.942;2023-07-13T15:49:14;24.20;68.10
34279;DHT22;20538;51.528;9.942;2023-07-13T15:51:39;23.80;67.30
34279;DHT22;20538;51.528;9.942;2023-07-13T15:54:05;23.70;67.70
34279;DHT22;20538;51.528;9.942;2023-07-13T15:56:37;23.60;68.40
34279;DHT22;20538;51.528;9.942;2023-07-13T15:59:09;23.60;69.30
34279;DHT22;20538;51.528;9.942;2023-07-13T16:01:45;23.60;69.10
34279;DHT22;20538;51.528;9.942;2023-07-13T16:10:52;24.20;67.30
34279;DHT22;20538;51.528;9.942;2023-07-13T16:17:30;25.10;66.90
34279;DHT22;20538;51.528;9.942;2023-07-13T16:20:36;26.60;65.70
34279;DHT22;20538;51.528;9.942;2023-07-13T16:23:23;26.70;63.10
34279;DHT22;20538;51.528;9.942;2023-07-13T16:30:17;26.70;65.20
34279;DHT22;20538;51.528;9.942;2023-07-13T16:32:48;26.50;61.60
34279;DHT22;20538;51.528;9.942;2023-07-13T16:36:08;25.00;65.40
34279;DHT22;20538;51.528;9.942;2023-07-13T16:38:47;24.20;67.90
34279;DHT22;20538;51.528;9.942;2023-07-13T16:41:57;24.00;68.50
34279;DHT22;20538;51.528;9.942;2023-07-13T16:44:56;23.30;66.80
34279;DHT22;20538;51.528;9.942;2023-07-13T16:55:33;20.70;78.40
34279;DHT22;20538;51.528;9.942;2023-07-13T16:58:25;20.50;80.80